createdAt,value
2023-05-21T00:00:22.252Z,12.15
2023-05-21T00:02:49.371Z,9.32
2023-05-21T00:05:18.352Z,11.88
2023-05-21T00:07:47.063Z,9.23
2023-05-21T00:10:14.021Z,12.70
2023-05-21T00:12:41.734Z,9.82
2023-05-21T00:15:09.199Z,9.55
2023-05-21T00:17:37.120Z,9.85
2023-05-21T00:20:08.682Z,12.10
2023-05-21T00:22:36.444Z,9.82
2023-05-21T00:25:03.658Z,9.73
2023-05-21T00:27:30.545Z,11.32
2023-05-21T00:29:57.296Z,10.73
2023-05-21T00:32:23.960Z,8.55
2023-05-21T00:34:50.815Z,14.93
2023-05-21T00:37:17.599Z,10.70
2023-05-21T00:39:44.258Z,11.60
2023-05-21T00:42:12.044Z,11.05
2023-05-21T00:44:39.316Z,9.73
2023-05-21T00:47:06.590Z,9.88
2023-05-21T00:49:33.237Z,8.57
2023-05-21T00:52:01.613Z,10.68
2023-05-21T00:54:28.380Z,10.85
2023-05-21T00:56:56.142Z,13.07
2023-05-21T00:59:23.812Z,9.77
2023-05-21T01:01:56.603Z,8.93
2023-05-21T01:04:23.740Z,12.77
2023-05-21T01:06:50.433Z,14.73
2023-05-21T01:09:17.191Z,9.98
2023-05-21T01:11:47.402Z,10.65
2023-05-21T01:14:15.337Z,9.10
2023-05-21T01:16:44.228Z,9.35
2023-05-21T01:19:14.903Z,8.02
2023-05-21T01:21:47.410Z,12.85
2023-05-21T01:24:15.394Z,10.18
2023-05-21T01:26:44.244Z,11.43
2023-05-21T01:29:14.138Z,11.73
2023-05-21T01:32:04.049Z,10.02
2023-05-21T01:34:45.706Z,9.23
2023-05-21T01:37:22.837Z,11.10
2023-05-21T01:39:56.244Z,10.13
2023-05-21T01:42:24.164Z,8.82
2023-05-21T01:44:56.027Z,11.32
2023-05-21T01:47:24.005Z,11.07
2023-05-21T01:49:52.538Z,13.93
2023-05-21T01:52:19.205Z,10.68
2023-05-21T01:54:45.893Z,14.23
2023-05-21T01:57:12.512Z,10.68
2023-05-21T01:59:39.213Z,13.40
2023-05-21T02:02:06.063Z,12.10
2023-05-21T02:04:32.696Z,10.60
2023-05-21T02:06:59.390Z,14.65
2023-05-21T02:09:26.239Z,14.50
2023-05-21T02:11:52.922Z,11.20
2023-05-21T02:14:20.478Z,9.77
2023-05-21T02:16:47.179Z,11.70
2023-05-21T02:19:13.865Z,13.32
2023-05-21T02:21:40.590Z,13.25
2023-05-21T02:24:07.334Z,12.35
2023-05-21T02:26:34.072Z,12.38
2023-05-21T02:29:00.999Z,11.40
2023-05-21T02:31:27.686Z,12.88
2023-05-21T02:33:54.420Z,12.60
2023-05-21T02:36:21.104Z,17.05
2023-05-21T02:38:47.800Z,13.00
2023-05-21T02:41:14.668Z,12.48
2023-05-21T02:43:41.395Z,10.57
2023-05-21T02:46:08.080Z,13.65
2023-05-21T02:48:35.518Z,12.15
2023-05-21T02:51:04.000Z,18.70
2023-05-21T02:53:31.095Z,12.27
2023-05-21T02:55:57.744Z,13.32
2023-05-21T02:58:25.402Z,12.50
2023-05-21T03:00:53.458Z,15.27
2023-05-21T03:03:20.362Z,13.18
2023-05-21T03:05:48.241Z,14.70
2023-05-21T03:08:14.985Z,12.88
2023-05-21T03:10:41.699Z,18.02
2023-05-21T03:13:09.836Z,14.25
2023-05-21T03:15:39.186Z,15.27
2023-05-21T03:18:06.222Z,14.43
2023-05-21T03:20:33.392Z,12.93
2023-05-21T03:23:04.060Z,13.18
2023-05-21T03:25:31.347Z,13.32
2023-05-21T03:27:57.998Z,14.55
2023-05-21T03:30:49.639Z,13.60
2023-05-21T03:33:42.902Z,13.35
2023-05-21T03:36:20.985Z,13.00
2023-05-21T03:38:47.694Z,12.27
2023-05-21T03:41:14.497Z,13.07
2023-05-21T03:43:44.337Z,13.27
2023-05-21T03:46:11.288Z,14.38
2023-05-21T03:49:01.093Z,15.85
2023-05-21T03:51:32.968Z,15.57
2023-05-21T03:53:59.829Z,16.75
2023-05-21T03:56:26.832Z,11.88
2023-05-21T03:58:54.080Z,13.52
2023-05-21T04:01:20.806Z,15.80
2023-05-21T04:03:49.764Z,21.05
2023-05-21T04:06:17.462Z,12.57
2023-05-21T04:08:44.519Z,13.95
2023-05-21T04:11:11.187Z,14.43
2023-05-21T04:13:38.603Z,15.50
2023-05-21T04:16:08.770Z,12.50
2023-05-21T04:18:36.304Z,14.35
2023-05-21T04:21:03.509Z,15.57
2023-05-21T04:23:30.146Z,14.05
2023-05-21T04:25:58.042Z,11.05
2023-05-21T04:28:24.780Z,13.48
2023-05-21T04:30:51.564Z,13.50
2023-05-21T04:33:20.174Z,16.85
2023-05-21T04:35:50.136Z,13.70
2023-05-21T04:38:21.152Z,11.55
2023-05-21T04:40:50.830Z,14.55
2023-05-21T04:43:17.575Z,11.70
2023-05-21T04:45:45.167Z,14.75
2023-05-21T04:48:12.666Z,12.13
2023-05-21T04:50:41.420Z,14.10
2023-05-21T04:53:08.325Z,13.07
2023-05-21T04:55:39.843Z,14.27
2023-05-21T04:58:07.335Z,12.35
2023-05-21T05:00:37.751Z,12.55
2023-05-21T05:03:05.739Z,14.80
2023-05-21T05:05:32.483Z,12.77
2023-05-21T05:07:59.470Z,15.15
2023-05-21T05:10:26.090Z,14.15
2023-05-21T05:12:54.702Z,13.93
2023-05-21T05:15:21.431Z,11.50
2023-05-21T05:17:50.428Z,12.18
2023-05-21T05:20:17.264Z,13.15
2023-05-21T05:22:43.903Z,12.10
2023-05-21T05:25:10.695Z,15.25
2023-05-21T05:27:38.577Z,13.48
2023-05-21T05:30:06.583Z,14.30
2023-05-21T05:32:33.291Z,11.50
2023-05-21T05:35:01.605Z,14.77
2023-05-21T05:37:29.204Z,13.45
2023-05-21T05:39:55.953Z,12.85
2023-05-21T05:42:22.707Z,12.10
2023-05-21T05:44:49.380Z,11.80
2023-05-21T05:47:16.688Z,15.20
2023-05-21T05:49:44.062Z,14.05
2023-05-21T05:52:10.768Z,12.30
2023-05-21T05:54:37.466Z,10.80
2023-05-21T05:57:04.892Z,15.13
2023-05-21T05:59:33.736Z,12.48
2023-05-21T06:02:01.470Z,17.58
2023-05-21T06:04:29.916Z,15.25
2023-05-21T06:07:00.493Z,20.55
2023-05-21T06:09:27.123Z,12.80
2023-05-21T06:11:53.777Z,15.05
2023-05-21T06:14:20.483Z,14.18
2023-05-21T06:16:48.207Z,12.60
2023-05-21T06:19:15.103Z,16.23
2023-05-21T06:21:42.018Z,11.48
2023-05-21T06:24:08.890Z,12.25
2023-05-21T06:26:35.780Z,14.60
2023-05-21T06:29:03.926Z,16.90
2023-05-21T06:31:33.139Z,13.50
2023-05-21T06:34:00.819Z,12.40
2023-05-21T06:36:30.147Z,13.35
2023-05-21T06:38:57.480Z,13.63
2023-05-21T06:41:24.693Z,11.88
2023-05-21T06:43:55.376Z,12.27
2023-05-21T06:46:40.660Z,11.80
2023-05-21T06:49:08.732Z,14.00
2023-05-21T06:51:35.470Z,14.40
2023-05-21T06:54:04.242Z,13.85
2023-05-21T06:56:31.453Z,13.98
2023-05-21T06:58:59.374Z,14.85
2023-05-21T07:01:26.923Z,14.40
2023-05-21T07:03:54.464Z,13.95
2023-05-21T07:06:21.172Z,17.85
2023-05-21T07:08:49.811Z,15.13
2023-05-21T07:11:17.219Z,13.50
2023-05-21T07:13:44.030Z,13.82
2023-05-21T07:16:11.966Z,12.00
2023-05-21T07:18:39.954Z,13.77
2023-05-21T07:21:06.615Z,14.27
2023-05-21T07:23:33.318Z,12.93
2023-05-21T07:26:00.021Z,12.93
2023-05-21T07:28:26.730Z,13.82
2023-05-21T07:30:54.398Z,13.43
2023-05-21T07:33:27.983Z,15.25
2023-05-21T07:35:54.673Z,12.20
2023-05-21T07:38:21.314Z,14.95
2023-05-21T07:40:48.013Z,15.70
2023-05-21T07:43:15.280Z,14.30
2023-05-21T07:45:42.000Z,15.70
2023-05-21T07:48:09.020Z,13.60
2023-05-21T07:50:40.773Z,15.73
2023-05-21T07:53:07.484Z,14.75
2023-05-21T07:55:34.995Z,15.10
2023-05-21T07:58:02.120Z,13.93
2023-05-21T08:00:43.005Z,15.98
2023-05-21T08:03:11.980Z,11.95
2023-05-21T08:05:39.006Z,12.82
2023-05-21T08:08:06.603Z,14.07
2023-05-21T08:10:33.893Z,13.82
2023-05-21T08:13:00.836Z,13.00
2023-05-21T08:15:27.784Z,14.63
2023-05-21T08:17:54.901Z,15.70
2023-05-21T08:20:21.654Z,14.63
2023-05-21T08:22:50.024Z,20.25
2023-05-21T08:25:17.184Z,17.45
2023-05-21T08:27:43.854Z,15.80
2023-05-21T08:30:13.920Z,17.58
2023-05-21T08:32:40.965Z,13.32
2023-05-21T08:35:08.604Z,16.60
2023-05-21T08:38:04.332Z,18.08
2023-05-21T08:40:41.523Z,17.70
2023-05-21T08:43:13.682Z,16.30
2023-05-21T08:45:45.813Z,14.13
2023-05-21T08:48:13.156Z,16.55
2023-05-21T08:50:41.364Z,16.52
2023-05-21T08:53:24.015Z,13.95
2023-05-21T08:55:56.009Z,13.68
2023-05-21T08:58:23.522Z,13.60
2023-05-21T09:00:51.504Z,17.27
2023-05-21T09:03:18.998Z,14.57
2023-05-21T09:05:46.048Z,17.30
2023-05-21T09:08:23.016Z,14.48
2023-05-21T09:10:57.005Z,16.13
2023-05-21T09:13:31.925Z,17.48
2023-05-21T09:16:02.411Z,17.35
2023-05-21T09:18:29.540Z,22.63
2023-05-21T09:21:26.839Z,16.65
2023-05-21T09:23:58.551Z,21.35
2023-05-21T09:26:26.526Z,16.90
2023-05-21T09:28:57.907Z,16.83
2023-05-21T09:31:25.757Z,14.90
2023-05-21T09:33:53.494Z,15.60
2023-05-21T09:36:21.937Z,17.92
2023-05-21T09:38:49.451Z,18.42
2023-05-21T09:41:21.572Z,21.50
2023-05-21T09:43:49.133Z,17.35
2023-05-21T09:46:16.451Z,22.27
2023-05-21T09:48:43.925Z,19.40
2023-05-21T09:51:18.862Z,18.48
2023-05-21T09:53:49.544Z,15.68
2023-05-21T09:56:19.097Z,18.00
2023-05-21T09:58:46.437Z,14.70
2023-05-21T10:01:16.812Z,16.60
2023-05-21T10:03:45.102Z,17.35
2023-05-21T10:06:12.221Z,16.92
2023-05-21T10:08:43.594Z,15.80
2023-05-21T10:11:15.863Z,19.38
2023-05-21T10:13:45.190Z,16.58
2023-05-21T10:16:12.719Z,19.27
2023-05-21T10:18:40.283Z,16.95
2023-05-21T10:21:08.334Z,20.45
2023-05-21T10:23:38.954Z,18.95
2023-05-21T10:26:05.679Z,17.15
2023-05-21T10:28:33.514Z,18.98
2023-05-21T10:31:00.446Z,17.30
2023-05-21T10:33:28.104Z,21.20
2023-05-21T10:35:54.847Z,18.45
2023-05-21T10:38:21.671Z,20.65
2023-05-21T10:40:49.232Z,17.23
2023-05-21T10:43:40.783Z,18.35
2023-05-21T10:46:19.833Z,18.95
2023-05-21T10:49:02.217Z,19.48
2023-05-21T10:51:34.095Z,17.65
2023-05-21T10:54:28.729Z,16.52
2023-05-21T10:57:11.731Z,18.25
2023-05-21T10:59:43.557Z,16.23
2023-05-21T11:02:11.791Z,17.88
2023-05-21T11:04:41.870Z,17.48
2023-05-21T11:07:08.914Z,15.90
2023-05-21T11:09:36.117Z,17.73
2023-05-21T11:12:04.878Z,17.25
2023-05-21T11:14:42.997Z,17.20
2023-05-21T11:17:09.645Z,17.58
2023-05-21T11:19:40.898Z,18.63
2023-05-21T11:22:26.677Z,16.45
2023-05-21T11:25:01.141Z,18.15
2023-05-21T11:27:39.032Z,15.85
2023-05-21T11:30:08.470Z,15.45
2023-05-21T11:32:39.922Z,19.70
2023-05-21T11:35:07.761Z,21.60
2023-05-21T11:37:35.008Z,15.35
2023-05-21T11:40:19.154Z,18.55
2023-05-21T11:42:50.006Z,20.30
2023-05-21T11:45:21.563Z,20.15
2023-05-21T11:47:49.867Z,16.42
2023-05-21T11:50:17.099Z,19.20
2023-05-21T11:52:44.793Z,17.10
2023-05-21T11:55:12.501Z,18.65
2023-05-21T11:57:42.837Z,17.13
2023-05-21T12:00:16.717Z,19.00
2023-05-21T12:02:49.716Z,18.33
2023-05-21T12:05:16.551Z,19.65
2023-05-21T12:07:46.471Z,16.65
2023-05-21T12:10:13.320Z,23.70
2023-05-21T12:12:54.035Z,18.08
2023-05-21T12:15:23.361Z,17.80
2023-05-21T12:17:52.843Z,18.05
2023-05-21T12:20:19.982Z,18.75
2023-05-21T12:22:48.908Z,16.58
2023-05-21T12:25:19.744Z,18.75
2023-05-21T12:27:46.674Z,14.50
2023-05-21T12:30:13.672Z,14.68
2023-05-21T12:32:46.434Z,15.68
2023-05-21T12:35:23.785Z,14.63
2023-05-21T12:37:51.125Z,16.77
2023-05-21T12:40:18.264Z,14.40
2023-05-21T12:42:46.159Z,15.68
2023-05-21T12:45:13.219Z,16.15
2023-05-21T12:47:39.865Z,14.70
2023-05-21T12:50:13.885Z,18.77
2023-05-21T12:52:42.762Z,19.80
2023-05-21T12:55:11.759Z,15.18
2023-05-21T12:57:39.304Z,16.20
2023-05-21T13:00:07.745Z,16.20
2023-05-21T13:02:39.280Z,18.35
2023-05-21T13:05:10.555Z,18.98
2023-05-21T13:07:39.310Z,15.73
2023-05-21T13:10:06.958Z,14.57
2023-05-21T13:12:34.592Z,17.13
2023-05-21T13:15:03.018Z,16.58
2023-05-21T13:17:30.093Z,16.25
2023-05-21T13:20:20.667Z,17.23
2023-05-21T13:22:53.486Z,14.90
2023-05-21T13:25:25.315Z,23.30
2023-05-21T13:27:52.868Z,16.25
2023-05-21T13:30:20.993Z,15.88
2023-05-21T13:32:48.519Z,15.32
2023-05-21T13:35:16.923Z,14.63
2023-05-21T13:37:45.174Z,18.35
2023-05-21T13:40:15.155Z,17.98
2023-05-21T13:42:47.318Z,17.98
2023-05-21T13:45:16.309Z,14.30
2023-05-21T13:47:43.889Z,17.55
2023-05-21T13:50:11.100Z,17.00
2023-05-21T13:52:38.768Z,16.00
2023-05-21T13:55:08.221Z,16.05
2023-05-21T13:57:34.994Z,14.23
2023-05-21T14:00:01.898Z,14.30
2023-05-21T14:02:34.752Z,12.27
2023-05-21T14:05:01.723Z,14.57
2023-05-21T14:07:35.667Z,15.48
2023-05-21T14:10:02.963Z,12.80
2023-05-21T14:12:30.485Z,13.45
2023-05-21T14:14:57.524Z,15.90
2023-05-21T14:17:24.213Z,15.60
2023-05-21T14:19:50.874Z,12.93
2023-05-21T14:22:17.535Z,16.17
2023-05-21T14:24:44.144Z,19.23
2023-05-21T14:27:12.591Z,14.20
2023-05-21T14:29:40.637Z,18.13
2023-05-21T14:32:07.892Z,13.60
2023-05-21T14:34:34.610Z,13.50
2023-05-21T14:37:01.382Z,20.23
2023-05-21T14:39:28.040Z,14.32
2023-05-21T14:41:55.318Z,14.25
2023-05-21T14:44:24.259Z,14.68
2023-05-21T14:46:51.514Z,15.60
2023-05-21T14:49:18.496Z,14.35
2023-05-21T14:51:45.197Z,17.00
2023-05-21T14:54:12.102Z,17.27
2023-05-21T14:56:38.811Z,16.65
2023-05-21T14:59:05.551Z,15.68
2023-05-21T15:01:32.252Z,13.35
2023-05-21T15:03:59.488Z,14.10
2023-05-21T15:06:27.800Z,16.48
2023-05-21T15:08:56.497Z,12.40
2023-05-21T15:11:23.156Z,15.50
2023-05-21T15:13:49.785Z,15.30
2023-05-21T15:16:18.729Z,14.55
2023-05-21T15:18:46.438Z,13.98
2023-05-21T15:21:14.640Z,18.20
2023-05-21T15:23:42.181Z,16.38
2023-05-21T15:26:09.348Z,18.65
2023-05-21T15:28:36.045Z,19.17
2023-05-21T15:31:03.068Z,17.92
2023-05-21T15:33:29.736Z,19.92
2023-05-21T15:35:57.044Z,16.42
2023-05-21T15:38:26.866Z,17.13
2023-05-21T15:40:53.741Z,16.67
2023-05-21T15:43:20.657Z,19.08
2023-05-21T15:45:47.362Z,16.05
2023-05-21T15:48:14.716Z,18.80
2023-05-21T15:50:42.940Z,18.20
2023-05-21T15:53:10.788Z,26.77
2023-05-21T15:55:37.788Z,17.67
2023-05-21T15:58:05.303Z,16.52
2023-05-21T16:00:32.085Z,17.25
2023-05-21T16:02:59.805Z,17.20
2023-05-21T16:05:27.562Z,18.10
2023-05-21T16:07:54.219Z,15.52
2023-05-21T16:10:22.979Z,20.88
2023-05-21T16:12:50.519Z,18.33
2023-05-21T16:15:17.282Z,13.30
2023-05-21T16:17:46.760Z,15.70
2023-05-21T16:20:13.712Z,16.38
2023-05-21T16:22:40.695Z,13.85
2023-05-21T16:25:08.041Z,14.27
2023-05-21T16:27:35.560Z,14.68
2023-05-21T16:30:02.514Z,13.50
2023-05-21T16:35:11.940Z,14.40
2023-05-21T16:37:38.737Z,13.57
2023-05-21T16:40:07.977Z,13.73
2023-05-21T16:42:34.924Z,15.57
2023-05-21T16:45:03.232Z,11.20
2023-05-21T16:47:30.566Z,12.73
2023-05-21T16:49:58.704Z,11.75
2023-05-21T16:52:26.565Z,12.77
2023-05-21T16:54:53.253Z,11.13
2023-05-21T16:57:20.007Z,10.48
2023-05-21T16:59:46.746Z,10.25
2023-05-21T17:02:16.810Z,13.32
2023-05-21T17:04:43.714Z,11.25
2023-05-21T17:07:11.912Z,12.20
2023-05-21T17:09:38.880Z,13.50
2023-05-21T17:12:07.983Z,13.75
2023-05-21T17:14:35.753Z,14.55
2023-05-21T17:17:03.453Z,13.50
2023-05-21T17:19:30.346Z,11.82
2023-05-21T17:21:57.193Z,14.07
2023-05-21T17:24:24.341Z,14.70
2023-05-21T17:26:51.509Z,15.73
2023-05-21T17:29:19.237Z,16.17
2023-05-21T17:31:49.724Z,13.63
2023-05-21T17:34:16.711Z,14.35
2023-05-21T17:36:43.459Z,17.52
2023-05-21T17:39:10.100Z,18.38
2023-05-21T17:41:36.762Z,18.42
2023-05-21T17:44:03.643Z,14.38
2023-05-21T17:46:30.666Z,15.20
2023-05-21T17:48:57.406Z,16.65
2023-05-21T17:51:24.107Z,14.77
2023-05-21T17:53:53.774Z,14.50
2023-05-21T17:56:23.417Z,19.42
2023-05-21T17:58:50.588Z,16.30
2023-05-21T18:01:17.327Z,14.25
2023-05-21T18:03:44.243Z,18.73
2023-05-21T18:06:14.641Z,19.90
2023-05-21T18:08:43.461Z,18.10
2023-05-21T18:11:10.280Z,13.23
2023-05-21T18:13:37.002Z,15.85
2023-05-21T18:16:04.010Z,14.93
2023-05-21T18:18:30.892Z,17.85
2023-05-21T18:20:57.863Z,16.13
2023-05-21T18:23:24.844Z,20.00
2023-05-21T18:25:51.495Z,19.15
2023-05-21T18:28:18.504Z,20.05
2023-05-21T18:30:45.571Z,17.98
2023-05-21T18:33:12.550Z,25.63
2023-05-21T18:35:39.372Z,23.17
2023-05-21T18:38:09.845Z,17.65
2023-05-21T18:40:37.739Z,20.02
2023-05-21T18:43:06.264Z,23.05
2023-05-21T18:45:36.354Z,17.85
2023-05-21T18:48:03.416Z,19.92
2023-05-21T18:50:31.665Z,21.80
2023-05-21T18:52:58.775Z,21.60
2023-05-21T18:55:25.419Z,21.88
2023-05-21T18:57:53.262Z,18.40
2023-05-21T19:00:20.091Z,24.92
2023-05-21T19:02:47.162Z,24.75
2023-05-21T19:05:13.888Z,20.00
2023-05-21T19:07:43.593Z,18.38
2023-05-21T19:10:11.619Z,20.25
2023-05-21T19:12:39.521Z,19.13
2023-05-21T19:15:07.128Z,23.52
2023-05-21T19:17:36.153Z,21.73
2023-05-21T19:20:05.579Z,21.70
2023-05-21T19:22:32.353Z,27.90
2023-05-21T19:24:59.412Z,24.02
2023-05-21T19:27:26.279Z,17.15
2023-05-21T19:29:52.885Z,13.80
2023-05-21T19:32:20.880Z,16.13
2023-05-21T19:34:48.253Z,13.85
2023-05-21T19:37:15.015Z,11.98
2023-05-21T19:39:42.841Z,11.35
2023-05-21T19:42:10.040Z,9.00
2023-05-21T19:44:39.341Z,9.57
2023-05-21T19:47:06.295Z,9.15
2023-05-21T19:49:34.267Z,13.65
2023-05-21T19:52:02.008Z,12.77
2023-05-21T19:54:28.732Z,9.32
2023-05-21T19:56:55.417Z,8.43
2023-05-21T19:59:22.347Z,12.20
2023-05-21T20:01:49.230Z,8.90
2023-05-21T20:04:16.134Z,9.98
2023-05-21T20:06:42.859Z,16.95
2023-05-21T20:09:13.120Z,10.25
2023-05-21T20:11:42.157Z,12.40
2023-05-21T20:14:09.032Z,10.63
2023-05-21T20:16:36.734Z,13.68
2023-05-21T20:19:03.739Z,15.73
2023-05-21T20:21:31.576Z,16.42
2023-05-21T20:23:58.348Z,9.60
2023-05-21T20:26:26.151Z,11.23
2023-05-21T20:28:53.143Z,11.10
2023-05-21T20:31:21.833Z,11.20
2023-05-21T20:33:50.358Z,11.63
2023-05-21T20:36:17.791Z,9.65
2023-05-21T20:38:45.699Z,9.50
2023-05-21T20:41:13.139Z,14.40
2023-05-21T20:43:39.920Z,13.02
2023-05-21T20:46:07.708Z,14.93
2023-05-21T20:48:35.279Z,15.18
2023-05-21T20:51:03.286Z,14.70
2023-05-21T20:53:30.060Z,16.52
2023-05-21T20:55:56.913Z,12.10
2023-05-21T20:58:25.537Z,19.48
2023-05-21T21:00:52.641Z,14.63
2023-05-21T21:03:21.651Z,14.13
2023-05-21T21:05:48.544Z,13.30
2023-05-21T21:08:16.176Z,14.07
2023-05-21T21:10:46.949Z,17.20
2023-05-21T21:13:14.332Z,16.15
2023-05-21T21:15:41.273Z,14.27
2023-05-21T21:18:08.014Z,16.60
2023-05-21T21:20:35.530Z,18.48
2023-05-21T21:23:02.246Z,21.85
2023-05-21T21:25:28.960Z,16.10
2023-05-21T21:27:55.664Z,17.88
2023-05-21T21:30:22.399Z,18.75
2023-05-21T21:32:49.540Z,18.65
2023-05-21T21:35:16.537Z,15.20
2023-05-21T21:37:43.217Z,18.73
2023-05-21T21:40:10.075Z,17.60
2023-05-21T21:42:36.927Z,23.77
2023-05-21T21:45:04.614Z,22.10
2023-05-21T21:47:31.424Z,19.58
2023-05-21T21:49:58.219Z,20.63
2023-05-21T21:52:27.382Z,21.15
2023-05-21T21:54:57.386Z,22.17
2023-05-21T21:57:24.270Z,23.05
2023-05-21T21:59:50.999Z,18.38
2023-05-21T22:02:17.951Z,26.48
2023-05-21T22:04:45.050Z,22.52
2023-05-21T22:07:17.885Z,26.20
2023-05-21T22:09:45.471Z,20.63
2023-05-21T22:12:12.776Z,21.20
2023-05-21T22:14:39.504Z,20.55
2023-05-21T22:17:08.480Z,22.65
2023-05-21T22:19:35.855Z,22.30
2023-05-21T22:22:04.146Z,21.05
2023-05-21T22:24:32.797Z,20.70
2023-05-21T22:27:00.168Z,18.42
2023-05-21T22:29:26.856Z,24.90
2023-05-21T22:31:53.564Z,19.63
2023-05-21T22:34:20.307Z,28.13
2023-05-21T22:36:47.352Z,25.05
2023-05-21T22:39:15.429Z,21.95
2023-05-21T22:41:42.110Z,23.98
2023-05-21T22:44:08.864Z,20.92
2023-05-21T22:46:35.610Z,25.83
2023-05-21T22:49:02.499Z,25.70
2023-05-21T22:51:34.869Z,26.70
2023-05-21T22:54:01.855Z,23.08
2023-05-21T22:56:29.129Z,26.40
2023-05-21T22:58:56.207Z,24.73
2023-05-21T23:01:23.303Z,21.35
2023-05-21T23:03:52.675Z,20.33
2023-05-21T23:06:20.861Z,25.25
2023-05-21T23:08:47.523Z,23.23
2023-05-21T23:11:14.150Z,26.27
2023-05-21T23:13:40.872Z,25.48
2023-05-21T23:16:07.714Z,29.00
2023-05-21T23:18:35.131Z,26.60
2023-05-21T23:21:02.506Z,23.58
2023-05-21T23:23:29.296Z,25.20
2023-05-21T23:25:57.562Z,23.27
2023-05-21T23:28:25.399Z,26.08
2023-05-21T23:30:52.069Z,26.75
2023-05-21T23:33:18.837Z,25.00
2023-05-21T23:35:45.542Z,26.20
2023-05-21T23:38:12.216Z,30.45
2023-05-21T23:40:39.080Z,29.88
2023-05-21T23:43:06.005Z,29.35
2023-05-21T23:45:32.727Z,27.05
2023-05-21T23:47:59.436Z,22.13
2023-05-21T23:50:26.143Z,25.35
2023-05-21T23:52:52.798Z,25.40
2023-05-21T23:55:19.488Z,27.33
2023-05-21T23:57:46.108Z,28.17
